Time;durP1;ratioP1;P1;durP2;ratioP2;P2;SDS_P1;SDS_P2;PMS_P1;PMS_P2;Temp;Humidity;BMP_temperature;BMP_pressure;BME280_temperature;BME280_humidity;BME280_pressure;Samples;Min_cycle;Max_cycle;Signal;HPM_P1;HPM_P2
2022/12/12 00:01:39;;;;;;;0.93;0.93;;;;;;;-0.77;81.11;94582.13;4347011;32;20219;-58
2022/12/12 00:04:05;;;;;;;1.60;1.60;;;;;;;-0.47;80.61;94585.12;4359340;32;20207;-58
2022/12/12 00:06:33;;;;;;;1.07;1.07;;;;;;;-0.35;79.55;94575.34;4371297;32;20267;-58
2022/12/12 00:08:59;;;;;;;1.90;1.80;;;;;;;-0.42;79.81;94585.19;4381107;32;20200;-58
2022/12/12 00:11:28;;;;;;;1.92;1.00;;;;;;;-0.38;79.80;94582.84;4364219;32;20258;-60
2022/12/12 00:13:53;;;;;;;1.25;1.15;;;;;;;-0.27;79.13;94583.78;4363902;32;20251;-58
2022/12/12 00:16:26;;;;;;;1.67;1.57;;;;;;;-0.27;78.72;94587.16;4343792;32;20271;-57
2022/12/12 00:18:51;;;;;;;1.17;1.05;;;;;;;-0.43;79.56;94585.41;4373255;32;20185;-63
2022/12/12 00:21:29;;;;;;;0.87;0.87;;;;;;;-0.65;80.44;94584.63;4373334;32;20232;-58
2022/12/12 00:24:03;;;;;;;2.40;2.30;;;;;;;-0.52;80.61;94597.28;4322627;32;20214;-61
2022/12/12 00:26:31;;;;;;;1.27;1.27;;;;;;;-0.71;80.57;94591.56;4322197;32;20185;-57
2022/12/12 00:28:58;;;;;;;1.95;0.95;;;;;;;-0.72;79.66;94596.00;4327377;32;20185;-58
2022/12/12 00:31:28;;;;;;;1.95;1.85;;;;;;;-0.61;79.37;94596.09;4348989;32;20248;-57
2022/12/12 00:33:54;;;;;;;1.35;1.35;;;;;;;-0.79;80.49;94603.19;4360394;32;20387;-57
2022/12/12 00:36:28;;;;;;;1.02;1.02;;;;;;;-0.88;80.94;94607.25;4361780;32;20181;-57
2022/12/12 00:38:53;;;;;;;1.98;1.25;;;;;;;-0.83;81.01;94603.94;4349030;32;20188;-57
2022/12/12 00:41:21;;;;;;;1.13;1.13;;;;;;;-0.82;81.03;94611.47;4359165;32;20201;-57
2022/12/12 00:43:46;;;;;;;1.08;0.95;;;;;;;-0.82;80.58;94605.47;4334552;32;20198;-57
2022/12/12 00:46:18;;;;;;;1.33;1.23;;;;;;;-0.91;81.02;94606.94;4353703;32;20296;-57
2022/12/12 00:48:45;;;;;;;1.12;1.12;;;;;;;-0.95;81.11;94604.00;4357204;32;20197;-57
2022/12/12 00:51:17;;;;;;;2.08;1.90;;;;;;;-0.87;81.03;94595.00;4297069;32;20234;-57
2022/12/12 00:53:42;;;;;;;2.47;0.88;;;;;;;-1.12;81.21;94605.84;4308258;32;20301;-56
2022/12/12 00:56:09;;;;;;;1.67;1.67;;;;;;;-0.73;80.70;94604.84;4263944;32;20248;-58
2022/12/12 00:58:37;;;;;;;0.77;0.77;;;;;;;-0.82;81.13;94603.66;4321082;32;20185;-57
2022/12/12 01:01:20;;;;;;;0.93;0.93;;;;;;;-0.88;80.28;94612.44;4323267;32;20193;-58
2022/12/12 01:03:45;;;;;;;2.40;2.17;;;;;;;-1.18;80.83;94607.56;4374808;32;20208;-57
2022/12/12 01:06:13;;;;;;;2.73;2.63;;;;;;;-1.12;81.66;94611.06;4355727;32;20192;-57
2022/12/12 01:08:44;;;;;;;1.10;0.95;;;;;;;-0.99;81.63;94602.91;4303090;32;20220;-58
2022/12/12 01:11:15;;;;;;;1.37;1.37;;;;;;;-0.82;81.30;94606.25;4339159;32;20184;-57
2022/12/12 01:13:49;;;;;;;1.05;0.98;;;;;;;-0.95;81.60;94606.59;4348074;32;20184;-57
2022/12/12 01:16:17;;;;;;;0.88;0.88;;;;;;;-1.08;81.54;94614.75;4349815;32;20184;-57
2022/12/12 01:18:45;;;;;;;1.15;1.15;;;;;;;-1.04;81.05;94621.06;4351821;32;20309;-57
2022/12/12 01:21:14;;;;;;;0.82;0.82;;;;;;;-1.07;81.70;94616.34;4352268;32;20188;-57
2022/12/12 01:23:39;;;;;;;1.75;1.75;;;;;;;-0.98;81.44;94621.91;4342438;32;20184;-57
2022/12/12 01:26:09;;;;;;;1.40;1.30;;;;;;;-1.00;81.65;94622.16;4362040;32;20207;-58
2022/12/12 01:28:35;;;;;;;1.00;1.00;;;;;;;-1.04;82.15;94621.81;4357918;32;20236;-57
2022/12/12 01:31:00;;;;;;;2.47;1.90;;;;;;;-1.07;81.86;94621.53;4361674;32;20192;-57
2022/12/12 01:33:26;;;;;;;3.20;2.93;;;;;;;-1.08;81.56;94622.56;4382705;32;20196;-58
2022/12/12 01:35:55;;;;;;;1.98;1.75;;;;;;;-0.97;81.01;94620.87;4365648;32;20259;-57
2022/12/12 01:38:23;;;;;;;1.10;1.10;;;;;;;-1.03;80.83;94617.41;4364332;32;20197;-57
2022/12/12 01:40:49;;;;;;;1.20;1.20;;;;;;;-0.98;80.90;94624.50;4364927;32;20202;-57
2022/12/12 01:43:18;;;;;;;1.00;0.85;;;;;;;-0.98;80.77;94622.69;4363276;32;20188;-57
2022/12/12 01:46:03;;;;;;;1.50;1.42;;;;;;;-1.21;81.14;94628.84;4364053;32;20290;-57
2022/12/12 01:48:54;;;;;;;1.60;1.50;;;;;;;-0.99;80.76;94622.94;4357544;32;20188;-58
2022/12/12 01:51:23;;;;;;;1.65;1.05;;;;;;;-1.13;81.10;94625.88;4370828;32;20207;-57
2022/12/12 01:53:57;;;;;;;0.80;0.80;;;;;;;-1.14;80.97;94626.09;4354471;32;20232;-57
2022/12/12 01:56:24;;;;;;;1.10;1.10;;;;;;;-1.29;81.12;94631.09;4337325;32;20184;-58
2022/12/12 01:58:56;;;;;;;1.50;1.45;;;;;;;-1.30;81.24;94632.91;4356683;32;20187;-57
2022/12/12 02:01:22;;;;;;;0.68;0.68;;;;;;;-1.32;81.42;94626.34;4359443;32;20196;-58
2022/12/12 02:03:48;;;;;;;0.67;0.67;;;;;;;-1.49;81.79;94637.53;4375917;32;20222;-57
2022/12/12 02:06:23;;;;;;;1.17;1.17;;;;;;;-1.24;81.13;94634.53;4344873;32;20276;-57
2022/12/12 02:08:54;;;;;;;1.55;1.55;;;;;;;-1.38;81.55;94638.47;4364520;32;20256;-58
2022/12/12 02:11:19;;;;;;;1.85;1.60;;;;;;;-1.39;81.56;94635.09;4370377;32;20271;-57
2022/12/12 02:13:47;;;;;;;0.90;0.90;;;;;;;-1.42;81.31;94638.16;4370395;32;20189;-58
2022/12/12 02:16:34;;;;;;;0.90;0.90;;;;;;;-1.28;81.70;94643.84;4363482;32;20336;-57
2022/12/12 02:19:18;;;;;;;1.67;0.70;;;;;;;-1.31;81.29;94631.31;4371737;32;20177;-57
2022/12/12 02:21:53;;;;;;;4.20;1.83;;;;;;;-1.12;80.87;94637.06;4386619;32;20185;-57
2022/12/12 02:24:40;;;;;;;0.65;0.65;;;;;;;-1.02;80.31;94637.22;4373614;32;20198;-58
2022/12/12 02:27:21;;;;;;;1.15;1.15;;;;;;;-0.82;79.50;94634.91;4353419;32;20220;-57
2022/12/12 02:30:08;;;;;;;2.50;1.10;;;;;;;-0.93;80.08;94646.19;4366844;32;20204;-57
2022/12/12 02:32:49;;;;;;;1.17;1.17;;;;;;;-0.99;79.48;94644.53;4368937;32;20232;-57
2022/12/12 02:35:26;;;;;;;1.35;1.30;;;;;;;-0.71;78.38;94634.03;4349113;32;20271;-58
2022/12/12 02:38:06;;;;;;;1.90;1.80;;;;;;;-0.87;78.48;94634.84;4379244;32;20227;-62
2022/12/12 02:40:47;;;;;;;1.90;1.62;;;;;;;-0.97;79.86;94639.88;4362638;32;20191;-57
2022/12/12 02:43:29;;;;;;;0.70;0.70;;;;;;;-0.79;78.86;94636.25;4377879;32;20218;-57
2022/12/12 02:46:02;;;;;;;1.12;1.12;;;;;;;-0.87;78.43;94637.44;4365858;32;20212;-57
2022/12/12 02:48:54;;;;;;;1.50;1.33;;;;;;;-1.00;79.42;94648.16;4355320;32;20235;-57
2022/12/12 02:51:21;;;;;;;1.12;1.12;;;;;;;-0.92;78.53;94636.59;4380616;32;20233;-58
2022/12/12 02:53:50;;;;;;;0.55;0.50;;;;;;;-0.77;78.30;94645.38;4351842;32;20219;-57
2022/12/12 02:56:40;;;;;;;1.73;1.62;;;;;;;-0.73;77.64;94645.69;4368475;32;20264;-57
2022/12/12 02:59:08;;;;;;;2.65;1.35;;;;;;;-0.82;78.26;94650.50;4369384;32;20219;-58
2022/12/12 03:01:46;;;;;;;2.67;1.20;;;;;;;-0.82;78.95;94644.53;4362356;32;20199;-57
2022/12/12 03:07:47;;;;;;;1.52;1.48;;;;;;;-0.51;78.70;94635.31;4374137;32;20199;-58
2022/12/12 03:10:26;;;;;;;1.33;1.33;;;;;;;-0.65;78.92;94640.09;4372913;32;20336;-57
2022/12/12 03:13:18;;;;;;;1.87;1.10;;;;;;;-0.75;79.32;94643.34;4378404;32;20184;-57
2022/12/12 03:15:58;;;;;;;1.00;1.00;;;;;;;-0.62;79.27;94660.44;4372291;32;20195;-57
2022/12/12 03:18:44;;;;;;;1.65;1.62;;;;;;;-0.72;79.31;94647.28;4379175;32;20232;-58
2022/12/12 03:22:05;;;;;;;1.48;1.48;;;;;;;-1.35;81.09;94653.62;4375605;32;20186;-57
2022/12/12 03:24:57;;;;;;;2.83;1.25;;;;;;;-1.32;82.58;94653.16;4300464;33;20197;-57
2022/12/12 03:27:39;;;;;;;2.58;1.12;;;;;;;-1.15;81.88;94651.34;4349275;32;20181;-57
2022/12/12 03:30:13;;;;;;;0.70;0.70;;;;;;;-1.18;81.38;94664.03;4362342;32;20228;-57
2022/12/12 03:32:48;;;;;;;0.85;0.68;;;;;;;-1.10;80.82;94655.84;4355464;32;20227;-57
2022/12/12 03:35:23;;;;;;;1.30;1.23;;;;;;;-1.01;79.82;94654.41;4363217;32;20183;-57
2022/12/12 03:38:00;;;;;;;1.90;1.77;;;;;;;-1.08;79.93;94653.78;4374446;32;20189;-57
2022/12/12 03:40:34;;;;;;;1.80;1.80;;;;;;;-1.06;79.89;94656.94;4375279;32;20229;-58
2022/12/12 03:43:10;;;;;;;1.40;1.40;;;;;;;-1.00;79.21;94655.19;4377997;32;20210;-58
2022/12/12 03:45:45;;;;;;;1.70;1.60;;;;;;;-0.93;78.57;94656.63;4369865;32;20183;-58
2022/12/12 03:48:30;;;;;;;1.73;1.62;;;;;;;-1.07;79.60;94668.38;4348255;32;20188;-58
2022/12/12 03:51:10;;;;;;;1.30;0.98;;;;;;;-1.28;80.07;94664.66;4344126;32;20210;-57
2022/12/12 03:54:21;;;;;;;1.05;1.05;;;;;;;-1.33;80.54;94667.19;4361337;32;20195;-57
2022/12/12 03:57:10;;;;;;;0.82;0.82;;;;;;;-1.01;80.05;94656.22;4341954;32;20189;-57
2022/12/12 03:59:41;;;;;;;1.02;1.02;;;;;;;-0.75;78.79;94652.97;4356794;32;20178;-57
2022/12/12 04:02:19;;;;;;;1.23;1.23;;;;;;;-1.14;78.83;94665.13;4371769;32;20192;-57
2022/12/12 04:04:57;;;;;;;1.35;1.25;;;;;;;-1.16;79.59;94661.97;4372586;32;20177;-57
2022/12/12 04:07:32;;;;;;;2.33;1.85;;;;;;;-1.50;80.48;94654.16;4365063;32;20278;-62
2022/12/12 04:13:21;;;;;;;0.50;0.50;;;;;;;-1.53;80.87;94659.03;4329333;32;20224;-58
2022/12/12 04:16:19;;;;;;;0.95;0.95;;;;;;;-1.64;80.91;94665.06;4362346;32;20196;-58
2022/12/12 04:19:11;;;;;;;0.40;0.40;;;;;;;-1.52;81.14;94661.41;4349825;32;20172;-57
2022/12/12 04:25:01;;;;;;;1.00;1.00;;;;;;;-1.52;80.87;94658.81;4343718;32;20278;-57
2022/12/12 04:27:33;;;;;;;2.00;1.27;;;;;;;-1.46;80.66;94663.06;4374888;32;20211;-57
2022/12/12 04:30:03;;;;;;;3.75;1.35;;;;;;;-1.67;80.88;94670.75;4373404;32;20198;-57
2022/12/12 04:32:42;;;;;;;2.10;2.00;;;;;;;-1.71;80.56;94670.44;4364999;32;20181;-56
2022/12/12 04:35:12;;;;;;;2.35;2.22;;;;;;;-1.66;81.05;94678.28;4365607;32;20211;-57
2022/12/12 04:37:43;;;;;;;1.10;1.10;;;;;;;-1.85;81.67;94674.31;4372878;32;20185;-57
2022/12/12 04:40:14;;;;;;;0.90;0.75;;;;;;;-1.57;81.30;94681.31;4355967;32;20188;-57
2022/12/12 04:42:45;;;;;;;0.62;0.62;;;;;;;-1.84;80.63;94673.28;4360748;32;20188;-57
2022/12/12 04:45:15;;;;;;;1.27;1.15;;;;;;;-1.75;81.09;94679.72;4359146;32;20192;-57
2022/12/12 04:47:47;;;;;;;0.80;0.68;;;;;;;-1.57;79.80;94681.31;4378468;32;20188;-57
2022/12/12 04:50:15;;;;;;;1.80;0.88;;;;;;;-1.63;79.99;94683.03;4358190;32;20279;-57
2022/12/12 04:52:46;;;;;;;0.57;0.57;;;;;;;-1.85;80.54;94682.09;4360650;32;20243;-58
2022/12/12 04:55:20;;;;;;;1.52;1.42;;;;;;;-1.98;80.53;94685.78;4365118;32;20381;-57
2022/12/12 04:57:53;;;;;;;1.35;0.93;;;;;;;-2.05;81.22;94686.91;4366183;32;20200;-57
2022/12/12 05:00:22;;;;;;;0.62;0.62;;;;;;;-1.82;80.49;94690.22;4358010;32;20232;-56
2022/12/12 05:03:10;;;;;;;1.50;1.50;;;;;;;-2.13;81.13;94688.87;4341490;32;20185;-57
2022/12/12 05:05:49;;;;;;;0.40;0.37;;;;;;;-2.16;81.72;94702.31;4358320;32;20189;-57
2022/12/12 05:08:30;;;;;;;1.40;1.30;;;;;;;-1.95;81.43;94694.91;4351242;32;20272;-57
2022/12/12 05:11:00;;;;;;;1.10;1.10;;;;;;;-2.03;80.88;94687.47;4352578;32;20189;-57
2022/12/12 05:13:32;;;;;;;1.27;1.27;;;;;;;-1.81;80.76;94696.22;4344788;32;20193;-57
2022/12/12 05:16:16;;;;;;;1.05;1.02;;;;;;;-1.71;80.69;94691.22;4357087;32;20211;-57
2022/12/12 05:18:43;;;;;;;2.00;1.80;;;;;;;-2.05;81.59;94700.69;4370807;32;20386;-57
2022/12/12 05:21:08;;;;;;;0.77;0.77;;;;;;;-1.87;80.50;94705.72;4359040;32;20291;-57
2022/12/12 05:23:33;;;;;;;3.07;1.30;;;;;;;-1.91;80.06;94709.81;4364736;32;20220;-57
2022/12/12 05:25:59;;;;;;;0.93;0.93;;;;;;;-2.05;80.88;94710.28;4364625;32;20197;-57
2022/12/12 05:28:25;;;;;;;2.20;1.70;;;;;;;-1.98;80.61;94703.97;4358212;32;20231;-57
2022/12/12 05:30:50;;;;;;;0.90;0.70;;;;;;;-1.95;80.73;94705.31;4373768;32;20233;-58
2022/12/12 05:33:16;;;;;;;1.03;1.03;;;;;;;-2.00;81.35;94713.78;4345532;32;20193;-58
2022/12/12 05:35:46;;;;;;;0.20;0.20;;;;;;;-2.03;80.86;94713.47;4343542;32;20309;-57
2022/12/12 05:38:11;;;;;;;2.55;1.23;;;;;;;-2.10;81.57;94717.00;4359410;32;20180;-57
2022/12/12 05:40:38;;;;;;;1.27;0.50;;;;;;;-2.25;82.15;94716.66;4372576;32;20207;-58
2022/12/12 05:43:03;;;;;;;1.45;1.45;;;;;;;-1.96;81.80;94721.94;4364048;32;20223;-57
2022/12/12 05:45:30;;;;;;;0.53;0.53;;;;;;;-1.78;80.95;94726.94;4352599;32;20215;-57
2022/12/12 05:47:57;;;;;;;0.30;0.30;;;;;;;-1.74;80.47;94728.88;4361182;32;20181;-57
2022/12/12 05:50:22;;;;;;;1.17;1.17;;;;;;;-2.04;81.09;94730.84;4349127;32;20181;-58
2022/12/12 05:52:48;;;;;;;0.90;0.90;;;;;;;-2.23;81.50;94735.41;4371475;32;20180;-57
2022/12/12 05:55:15;;;;;;;1.50;0.73;;;;;;;-2.11;82.23;94728.41;4372517;32;20267;-58
2022/12/12 05:57:41;;;;;;;1.90;1.80;;;;;;;-1.74;80.98;94728.06;4364210;32;20268;-58
2022/12/12 06:00:09;;;;;;;0.88;0.88;;;;;;;-1.76;80.46;94730.91;4349587;32;20199;-57
2022/12/12 06:02:35;;;;;;;0.65;0.65;;;;;;;-1.99;80.80;94735.38;4343024;32;20232;-58
2022/12/12 06:05:01;;;;;;;1.60;0.93;;;;;;;-1.88;81.15;94732.75;4357329;32;20188;-58
2022/12/12 06:07:27;;;;;;;1.63;1.63;;;;;;;-2.11;81.61;94741.41;4368638;32;20192;-57
2022/12/12 06:09:54;;;;;;;2.75;1.83;;;;;;;-2.17;81.61;94734.50;4354578;32;20298;-58
2022/12/12 06:12:21;;;;;;;2.25;0.35;;;;;;;-2.10;81.54;94739.59;4371054;32;20191;-58
2022/12/12 06:14:47;;;;;;;0.75;0.75;;;;;;;-2.00;81.46;94744.19;4341666;32;20198;-59
2022/12/12 06:17:12;;;;;;;0.30;0.30;;;;;;;-2.10;82.21;94749.97;4346701;32;20245;-57
2022/12/12 06:19:37;;;;;;;1.97;1.27;;;;;;;-2.04;81.41;94746.44;4369751;32;20181;-57
2022/12/12 06:22:04;;;;;;;1.62;0.80;;;;;;;-2.19;81.73;94749.53;4362656;32;20189;-58
2022/12/12 06:24:29;;;;;;;0.73;0.73;;;;;;;-2.08;81.54;94747.94;4339286;32;20234;-58
2022/12/12 06:26:55;;;;;;;0.80;0.80;;;;;;;-2.13;81.79;94742.63;4353077;32;20247;-57
2022/12/12 06:29:21;;;;;;;0.50;0.50;;;;;;;-2.33;82.46;94748.19;4385174;32;20237;-58
2022/12/12 06:31:48;;;;;;;1.87;1.77;;;;;;;-2.32;82.96;94739.38;4356534;32;20184;-58
2022/12/12 06:34:13;;;;;;;2.15;0.47;;;;;;;-2.31;82.81;94738.38;4369290;32;20290;-58
2022/12/12 06:36:40;;;;;;;0.77;0.77;;;;;;;-2.13;82.76;94745.22;4339138;32;20201;-57
2022/12/12 06:39:06;;;;;;;1.12;1.02;;;;;;;-1.97;82.10;94735.94;4371683;32;20216;-58
2022/12/12 06:41:33;;;;;;;0.85;0.85;;;;;;;-2.18;82.13;94747.72;4368770;32;20184;-58
2022/12/12 06:43:59;;;;;;;1.17;1.17;;;;;;;-2.16;82.27;94750.88;4371459;32;20188;-58
2022/12/12 06:46:27;;;;;;;0.73;0.50;;;;;;;-2.21;82.09;94748.97;4369699;32;20203;-61
2022/12/12 06:48:55;;;;;;;1.00;0.73;;;;;;;-2.33;82.96;94750.78;4377916;32;20204;-63
2022/12/12 06:51:25;;;;;;;1.37;0.68;;;;;;;-2.17;82.42;94749.31;4380088;32;20213;-57
2022/12/12 06:53:51;;;;;;;1.05;1.05;;;;;;;-2.08;82.28;94756.50;4363912;32;20208;-58
2022/12/12 06:56:21;;;;;;;1.00;0.90;;;;;;;-2.07;81.94;94755.47;4357646;32;20188;-58
2022/12/12 06:58:48;;;;;;;8.98;1.02;;;;;;;-1.88;81.96;94753.56;4365316;32;20216;-58
2022/12/12 07:01:18;;;;;;;1.10;1.10;;;;;;;-1.82;81.32;94763.00;4352996;32;20203;-57
2022/12/12 07:03:44;;;;;;;0.37;0.37;;;;;;;-2.05;81.75;94764.84;4325929;32;20190;-58
2022/12/12 07:06:09;;;;;;;0.63;0.63;;;;;;;-2.09;82.41;94767.94;4330564;32;20246;-58
2022/12/12 07:08:35;;;;;;;1.27;1.27;;;;;;;-2.08;82.78;94766.88;4386501;32;20253;-56
2022/12/12 07:11:11;;;;;;;0.33;0.33;;;;;;;-1.99;82.83;94766.53;4345740;32;20263;-57
2022/12/12 07:13:37;;;;;;;0.82;0.65;;;;;;;-1.70;81.90;94765.59;4354984;32;20200;-56
2022/12/12 07:16:06;;;;;;;0.73;0.73;;;;;;;-1.75;80.98;94773.28;4371447;32;20211;-57
2022/12/12 07:18:33;;;;;;;1.20;1.20;;;;;;;-1.79;81.29;94764.34;4361700;32;20252;-57
2022/12/12 07:21:05;;;;;;;2.85;1.65;;;;;;;-1.96;81.65;94763.50;4341749;32;20195;-57
2022/12/12 07:23:32;;;;;;;3.17;2.87;;;;;;;-1.86;80.92;94771.47;4358916;32;20204;-57
2022/12/12 07:25:57;;;;;;;0.60;0.60;;;;;;;-1.94;80.57;94769.25;4352047;32;20208;-56
2022/12/12 07:28:25;;;;;;;0.53;0.53;;;;;;;-1.99;81.20;94767.34;4361443;32;20192;-39
2022/12/12 07:30:51;;;;;;;1.80;1.70;;;;;;;3.45;100.00;94751.03;4351068;32;20200;-39
2022/12/12 07:33:18;;;;;;;2.23;2.13;;;;;;;5.00;100.00;94743.97;4368890;32;20281;-39
2022/12/12 07:35:44;;;;;;;1.93;1.83;;;;;;;6.01;87.93;94737.97;4359954;32;20306;-38
2022/12/12 07:38:10;;;;;;;1.73;1.63;;;;;;;6.60;72.84;94755.22;4370687;32;20282;-38
2022/12/12 07:40:37;;;;;;;2.33;2.13;;;;;;;7.40;63.53;94759.69;4336656;32;20223;-41
2022/12/12 07:43:03;;;;;;;1.40;1.40;;;;;;;8.13;59.35;94770.38;4332181;32;20329;-38
2022/12/12 07:45:30;;;;;;;3.00;1.97;;;;;;;8.46;55.96;94775.66;4349157;32;20297;-39
2022/12/12 07:47:56;;;;;;;1.73;1.63;;;;;;;8.63;53.50;94778.47;4337555;32;20193;-38
2022/12/12 07:50:22;;;;;;;1.37;1.37;;;;;;;8.60;52.45;94776.41;4364976;32;20281;-41
2022/12/12 07:52:52;;;;;;;2.17;1.97;;;;;;;8.66;51.18;94777.91;4352622;32;20324;-40
2022/12/12 07:55:17;;;;;;;1.43;1.43;;;;;;;8.18;50.50;94790.63;4373039;32;20198;-41
2022/12/12 07:57:44;;;;;;;1.80;1.70;;;;;;;8.04;49.86;94790.63;4348786;32;20308;-69
2022/12/12 08:00:14;;;;;;;2.83;2.27;;;;;;;6.41;47.25;94794.69;4331257;32;20200;-66
2022/12/12 08:02:44;;;;;;;1.63;1.63;;;;;;;3.98;52.07;94807.38;4364460;32;20273;-61
2022/12/12 08:05:10;;;;;;;1.60;1.50;;;;;;;2.02;58.92;94811.84;4363382;32;20286;-62
2022/12/12 08:07:36;;;;;;;0.93;0.93;;;;;;;1.22;62.43;94818.00;4363624;32;20308;-62
2022/12/12 08:10:07;;;;;;;4.23;2.47;;;;;;;0.47;65.88;94822.16;4356807;32;20181;-61
2022/12/12 08:12:33;;;;;;;1.73;1.63;;;;;;;0.10;68.30;94821.16;4357837;32;20368;-60
2022/12/12 08:15:02;;;;;;;1.33;1.33;;;;;;;-0.36;70.15;94828.28;4335208;32;20286;-60
2022/12/12 08:17:29;;;;;;;1.50;1.50;;;;;;;-1.05;73.27;94831.06;4351160;32;20219;-62
2022/12/12 08:19:57;;;;;;;1.50;1.40;;;;;;;-0.94;73.93;94831.22;4359795;32;20281;-65
2022/12/12 08:22:22;;;;;;;2.12;2.03;;;;;;;-1.06;74.50;94833.91;4360580;32;20281;-65
2022/12/12 08:24:52;;;;;;;1.70;1.60;;;;;;;-1.05;74.94;94833.66;4350290;32;20197;-64
2022/12/12 08:27:18;;;;;;;1.95;1.85;;;;;;;-1.31;75.16;94839.41;4348802;32;20197;-68
2022/12/12 08:29:44;;;;;;;3.22;1.35;;;;;;;-0.92;73.54;94832.59;4369108;32;20253;-67
2022/12/12 08:32:09;;;;;;;1.37;1.37;;;;;;;-1.06;74.64;94831.28;4375188;32;20181;-66
2022/12/12 08:34:37;;;;;;;1.73;1.63;;;;;;;-1.00;74.26;94840.75;4339060;32;20306;-68
2022/12/12 08:37:02;;;;;;;0.70;0.70;;;;;;;-0.75;73.12;94835.22;4303764;32;20204;-66
2022/12/12 08:39:29;;;;;;;3.40;1.00;;;;;;;-0.70;72.78;94837.91;4320103;32;20189;-67
2022/12/12 08:41:55;;;;;;;1.10;1.10;;;;;;;-0.78;73.04;94839.06;4339946;32;20185;-67
2022/12/12 08:44:21;;;;;;;1.20;1.20;;;;;;;-0.55;72.16;94847.78;4369835;32;20248;-67
2022/12/12 08:46:47;;;;;;;0.22;0.22;;;;;;;-0.55;71.24;94845.19;4373610;32;20189;-67
2022/12/12 08:49:13;;;;;;;0.50;0.50;;;;;;;-0.33;70.27;94847.87;4377164;32;20184;-67
2022/12/12 08:51:42;;;;;;;3.73;1.43;;;;;;;-0.69;72.12;94844.69;4367845;32;20266;-67
2022/12/12 08:54:13;;;;;;;0.95;0.95;;;;;;;-0.55;71.38;94845.19;4341994;32;20200;-67
2022/12/12 08:56:40;;;;;;;1.67;1.65;;;;;;;-0.89;72.65;94839.94;4349731;32;20272;-66
2022/12/12 08:59:06;;;;;;;1.48;1.00;;;;;;;-0.96;72.88;94847.09;4385513;32;20206;-65
2022/12/12 09:01:32;;;;;;;1.02;1.02;;;;;;;-1.01;73.07;94840.97;4386284;32;20181;-65
2022/12/12 09:03:58;;;;;;;0.80;0.80;;;;;;;-1.16;73.72;94855.31;4365614;32;20189;-65
2022/12/12 09:06:25;;;;;;;0.30;0.30;;;;;;;-1.08;73.30;94848.94;4378666;32;20208;-65
2022/12/12 09:08:51;;;;;;;0.57;0.57;;;;;;;-0.75;72.67;94848.22;4378789;32;20244;-64
2022/12/12 09:11:18;;;;;;;1.03;1.00;;;;;;;-0.80;72.40;94854.13;4390040;32;20197;-64
2022/12/12 09:13:43;;;;;;;0.85;0.85;;;;;;;-1.00;72.60;94853.75;4357139;32;20216;-68
2022/12/12 09:16:11;;;;;;;0.70;0.70;;;;;;;-0.94;72.64;94857.25;4380695;32;20203;-63
2022/12/12 09:18:37;;;;;;;1.65;1.65;;;;;;;-0.70;72.69;94862.13;4356084;32;20185;-65
2022/12/12 09:21:05;;;;;;;1.55;1.45;;;;;;;-0.51;71.59;94861.91;4365815;32;20202;-62
2022/12/12 09:23:32;;;;;;;1.20;1.20;;;;;;;-0.45;71.04;94856.56;4368923;32;20211;-63
2022/12/12 09:26:12;;;;;;;1.52;1.42;;;;;;;-0.46;70.89;94860.19;4385341;32;20206;-61
2022/12/12 09:28:38;;;;;;;0.93;0.93;;;;;;;-0.43;71.28;94864.94;4356387;32;20199;-65
2022/12/12 09:31:07;;;;;;;0.37;0.37;;;;;;;-0.49;71.51;94860.66;4353056;32;20215;-63
2022/12/12 09:33:33;;;;;;;0.80;0.80;;;;;;;-0.32;71.69;94860.66;4325094;32;20208;-65
2022/12/12 09:36:01;;;;;;;0.53;0.53;;;;;;;-0.12;70.93;94865.41;4360039;32;20200;-63
2022/12/12 09:38:28;;;;;;;0.43;0.43;;;;;;;-0.35;70.71;94872.34;4348489;32;20390;-63
2022/12/12 09:40:59;;;;;;;1.12;1.02;;;;;;;-0.58;71.77;94872.47;4367658;32;20289;-63
2022/12/12 09:43:32;;;;;;;0.32;0.32;;;;;;;-0.18;70.47;94861.91;4367727;32;20189;-68
2022/12/12 09:46:01;;;;;;;1.42;1.42;;;;;;;-0.31;70.57;94872.66;4371681;32;20176;-68
2022/12/12 09:48:45;;;;;;;1.40;0.85;;;;;;;-0.28;71.09;94868.81;4361035;32;20284;-62
2022/12/12 09:51:12;;;;;;;1.50;1.40;;;;;;;0.16;70.24;94861.91;4371596;32;20172;-61
2022/12/12 09:53:44;;;;;;;1.40;1.30;;;;;;;0.09;70.24;94866.50;4374723;32;20269;-61
2022/12/12 09:56:17;;;;;;;1.70;1.70;;;;;;;0.39;68.43;94866.94;4362819;32;20244;-65
2022/12/12 09:58:54;;;;;;;1.37;1.37;;;;;;;0.50;68.44;94868.62;4345794;32;20295;-62
2022/12/12 10:01:38;;;;;;;2.03;1.93;;;;;;;0.55;69.28;94860.88;4352085;32;20349;-61
2022/12/12 10:04:33;;;;;;;1.07;0.43;;;;;;;0.28;68.75;94867.81;4352140;32;20303;-61
2022/12/12 10:07:18;;;;;;;1.17;1.17;;;;;;;0.38;68.92;94859.34;4364866;32;20385;-61
2022/12/12 10:09:49;;;;;;;0.70;0.70;;;;;;;0.53;68.86;94856.91;4370507;32;20280;-62
2022/12/12 10:12:18;;;;;;;1.13;1.13;;;;;;;0.65;67.74;94860.97;4359224;32;20280;-61
2022/12/12 10:14:51;;;;;;;1.77;1.67;;;;;;;0.32;69.05;94858.47;4332572;32;20282;-63
2022/12/12 10:17:37;;;;;;;1.57;1.47;;;;;;;0.29;68.55;94857.13;4350414;32;20387;-63
2022/12/12 10:20:19;;;;;;;0.40;0.40;;;;;;;0.32;69.11;94855.87;4336826;32;20337;-62
2022/12/12 10:23:12;;;;;;;1.23;1.20;;;;;;;0.07;68.89;94850.28;4358255;32;20288;-65
2022/12/12 10:25:58;;;;;;;0.63;0.63;;;;;;;0.26;68.75;94851.59;4350992;32;20327;-65
2022/12/12 10:28:27;;;;;;;0.57;0.57;;;;;;;0.45;68.43;94845.06;4361464;32;20308;-67
2022/12/12 10:31:27;;;;;;;1.60;1.50;;;;;;;0.31;69.34;94846.47;4322520;32;20300;-63
2022/12/12 10:34:13;;;;;;;1.07;1.07;;;;;;;0.23;69.69;94857.28;4347600;32;20284;-66
2022/12/12 10:36:49;;;;;;;1.20;1.20;;;;;;;0.10;70.94;94850.63;4354770;32;20284;-61
2022/12/12 10:39:32;;;;;;;0.50;0.50;;;;;;;0.58;69.17;94849.16;4375342;32;20271;-61
2022/12/12 10:42:12;;;;;;;0.87;0.87;;;;;;;0.48;69.42;94839.38;4339605;32;20189;-65
2022/12/12 10:44:53;;;;;;;0.93;0.93;;;;;;;0.72;68.05;94844.38;4344346;32;20311;-64
2022/12/12 10:47:18;;;;;;;1.53;1.43;;;;;;;0.58;69.18;94839.53;4359833;32;20280;-63
2022/12/12 10:49:45;;;;;;;1.23;1.03;;;;;;;0.92;67.12;94826.31;4375961;32;20268;-61
2022/12/12 10:52:19;;;;;;;0.67;0.67;;;;;;;0.61;67.96;94828.59;4362895;32;20180;-66
2022/12/12 10:54:53;;;;;;;1.37;1.27;;;;;;;0.68;69.00;94831.78;4313277;32;20341;-63
2022/12/12 10:57:24;;;;;;;0.93;0.93;;;;;;;0.86;67.91;94829.91;4303327;32;20279;-66
2022/12/12 10:59:54;;;;;;;0.80;0.80;;;;;;;0.87;67.75;94828.88;4348568;32;20379;-62
2022/12/12 11:02:36;;;;;;;2.37;1.67;;;;;;;0.68;65.87;94839.63;4321143;32;20278;-61
2022/12/12 11:05:16;;;;;;;1.70;1.13;;;;;;;0.79;66.15;94834.53;4362771;32;20311;-62
2022/12/12 11:07:46;;;;;;;6.90;1.90;;;;;;;0.98;65.92;94827.97;4340771;32;20306;-64
2022/12/12 11:10:32;;;;;;;0.70;0.70;;;;;;;0.84;67.18;94834.56;4356572;32;20293;-62
2022/12/12 11:13:08;;;;;;;0.93;0.93;;;;;;;1.26;65.38;94834.75;4334985;32;20276;-63
2022/12/12 11:16:15;;;;;;;3.00;1.33;;;;;;;0.87;66.00;94841.91;4321415;32;20285;-63
2022/12/12 11:18:55;;;;;;;0.60;0.60;;;;;;;1.10;65.65;94831.19;4299408;32;20372;-64
2022/12/12 11:21:24;;;;;;;1.60;1.50;;;;;;;0.99;66.92;94829.53;4341742;32;20380;-64
2022/12/12 11:23:54;;;;;;;0.80;0.80;;;;;;;1.09;66.16;94834.84;4345261;32;20306;-64
2022/12/12 11:26:22;;;;;;;0.70;0.70;;;;;;;1.38;65.38;94828.34;4303481;32;20343;-64
2022/12/12 11:29:10;;;;;;;0.50;0.50;;;;;;;1.29;65.25;94829.03;4325825;32;20282;-64
2022/12/12 11:31:35;;;;;;;0.63;0.63;;;;;;;1.45;64.26;94827.38;4328968;32;20329;-64
2022/12/12 11:34:05;;;;;;;1.80;1.73;;;;;;;1.33;64.43;94820.47;4333761;32;20305;-64
2022/12/12 11:36:37;;;;;;;1.10;1.10;;;;;;;1.32;63.35;94823.31;4356695;32;20236;-64
2022/12/12 11:39:20;;;;;;;0.37;0.37;;;;;;;1.45;62.01;94822.94;4345844;32;20277;-64
2022/12/12 11:42:12;;;;;;;0.60;0.60;;;;;;;1.51;61.42;94826.34;4359322;32;20391;-64
2022/12/12 11:44:39;;;;;;;1.53;1.43;;;;;;;2.08;59.58;94814.22;4354342;32;20287;-65
2022/12/12 11:47:25;;;;;;;0.73;0.73;;;;;;;1.56;60.68;94823.78;4351074;32;20339;-65
2022/12/12 11:49:58;;;;;;;0.60;0.60;;;;;;;1.48;61.19;94819.00;4357640;32;20284;-65
2022/12/12 11:52:32;;;;;;;0.63;0.63;;;;;;;1.55;56.87;94819.59;4331208;32;20309;-64
2022/12/12 11:55:01;;;;;;;0.13;0.13;;;;;;;1.69;58.99;94818.13;4326095;32;20296;-65
2022/12/12 11:58:06;;;;;;;1.23;1.20;;;;;;;1.66;56.48;94818.66;4359491;32;20359;-64
2022/12/12 12:00:44;;;;;;;1.40;1.27;;;;;;;1.60;55.08;94812.59;4318009;32;20322;-62
2022/12/12 12:03:22;;;;;;;0.53;0.53;;;;;;;1.38;57.07;94811.88;4329775;32;20267;-62
2022/12/12 12:06:33;;;;;;;1.27;1.27;;;;;;;1.12;57.87;94807.47;4357503;32;20334;-61
2022/12/12 12:09:45;;;;;;;0.73;0.73;;;;;;;1.15;56.91;94806.97;4311411;32;20317;-61
2022/12/12 12:12:30;;;;;;;0.97;0.97;;;;;;;0.94;56.13;94811.19;4304962;32;20286;-60